sensor_id;sensor_type;location;lat;lon;timestamp;pressure;altitude;pressure_sealevel;temperature;humidity
51313;BME280;37397;53.226;10.400;2022-12-07T00:01:14;100787.56;;;4.58;75.62
51313;BME280;37397;53.226;10.400;2022-12-07T00:03:42;100789.19;;;4.59;75.91
51313;BME280;37397;53.226;10.400;2022-12-07T00:06:12;100786.34;;;4.59;75.51
51313;BME280;37397;53.226;10.400;2022-12-07T00:08:39;100780.69;;;4.59;75.88
51313;BME280;37397;53.226;10.400;2022-12-07T00:11:08;100781.03;;;4.61;75.99
51313;BME280;37397;53.226;10.400;2022-12-07T00:13:35;100769.41;;;4.59;75.47
51313;BME280;37397;53.226;10.400;2022-12-07T00:16:13;100764.88;;;4.62;75.85
51313;BME280;37397;53.226;10.400;2022-12-07T00:18:40;100766.13;;;4.61;75.96
51313;BME280;37397;53.226;10.400;2022-12-07T00:21:13;100766.56;;;4.59;75.84
51313;BME280;37397;53.226;10.400;2022-12-07T00:23:40;100769.31;;;4.63;75.71
51313;BME280;37397;53.226;10.400;2022-12-07T00:26:13;100765.69;;;4.62;75.87
51313;BME280;37397;53.226;10.400;2022-12-07T00:28:40;100750.31;;;4.63;76.05
51313;BME280;37397;53.226;10.400;2022-12-07T00:31:09;100751.91;;;4.64;75.88
51313;BME280;37397;53.226;10.400;2022-12-07T00:33:36;100745.81;;;4.66;75.60
51313;BME280;37397;53.226;10.400;2022-12-07T00:36:06;100751.91;;;4.64;75.87
51313;BME280;37397;53.226;10.400;2022-12-07T00:38:34;100745.00;;;4.65;75.92
51313;BME280;37397;53.226;10.400;2022-12-07T00:41:06;100738.22;;;4.63;76.00
51313;BME280;37397;53.226;10.400;2022-12-07T00:43:33;100735.28;;;4.66;75.79
51313;BME280;37397;53.226;10.400;2022-12-07T00:46:00;100735.63;;;4.68;75.72
51313;BME280;37397;53.226;10.400;2022-12-07T00:48:26;100726.38;;;4.68;75.75
51313;BME280;37397;53.226;10.400;2022-12-07T00:50:53;100731.56;;;4.69;75.74
51313;BME280;37397;53.226;10.400;2022-12-07T00:53:20;100721.88;;;4.70;75.92
51313;BME280;37397;53.226;10.400;2022-12-07T00:55:46;100706.47;;;4.71;76.08
51313;BME280;37397;53.226;10.400;2022-12-07T00:58:13;100701.66;;;4.72;75.73
51313;BME280;37397;53.226;10.400;2022-12-07T01:00:41;100701.66;;;4.72;75.79
51313;BME280;37397;53.226;10.400;2022-12-07T01:03:11;100698.38;;;4.73;76.03
51313;BME280;37397;53.226;10.400;2022-12-07T01:05:38;100704.81;;;4.74;76.13
51313;BME280;37397;53.226;10.400;2022-12-07T01:08:05;100705.59;;;4.74;75.89
51313;BME280;37397;53.226;10.400;2022-12-07T01:10:32;100703.13;;;4.77;76.26
51313;BME280;37397;53.226;10.400;2022-12-07T01:12:59;100700.31;;;4.77;76.03
51313;BME280;37397;53.226;10.400;2022-12-07T01:15:25;100694.28;;;4.74;76.16
51313;BME280;37397;53.226;10.400;2022-12-07T01:17:53;100704.38;;;4.75;76.06
51313;BME280;37397;53.226;10.400;2022-12-07T01:20:20;100696.22;;;4.78;76.26
51313;BME280;37397;53.226;10.400;2022-12-07T01:22:47;100712.75;;;4.79;76.27
51313;BME280;37397;53.226;10.400;2022-12-07T01:25:13;100703.47;;;4.79;75.96
51313;BME280;37397;53.226;10.400;2022-12-07T01:27:40;100701.44;;;4.79;76.11
51313;BME280;37397;53.226;10.400;2022-12-07T01:30:06;100697.38;;;4.80;76.03
51313;BME280;37397;53.226;10.400;2022-12-07T01:32:33;100708.25;;;4.82;76.09
51313;BME280;37397;53.226;10.400;2022-12-07T01:35:00;100697.38;;;4.80;76.14
51313;BME280;37397;53.226;10.400;2022-12-07T01:37:26;100700.13;;;4.84;76.29
51313;BME280;37397;53.226;10.400;2022-12-07T01:39:53;100685.97;;;4.84;75.99
51313;BME280;37397;53.226;10.400;2022-12-07T01:42:19;100673.88;;;4.83;76.26
51313;BME280;37397;53.226;10.400;2022-12-07T01:47:53;100672.72;;;4.81;76.05
51313;BME280;37397;53.226;10.400;2022-12-07T01:50:24;100670.63;;;4.85;76.31
51313;BME280;37397;53.226;10.400;2022-12-07T01:52:53;100674.31;;;4.82;76.09
51313;BME280;37397;53.226;10.400;2022-12-07T01:55:22;100672.19;;;4.86;76.45
51313;BME280;37397;53.226;10.400;2022-12-07T01:57:52;100665.28;;;4.87;76.05
51313;BME280;37397;53.226;10.400;2022-12-07T02:00:20;100659.31;;;4.85;76.20
51313;BME280;37397;53.226;10.400;2022-12-07T02:05:33;100663.69;;;4.86;76.35
51313;BME280;37397;53.226;10.400;2022-12-07T02:08:01;100662.47;;;4.87;76.40
51313;BME280;37397;53.226;10.400;2022-12-07T02:10:30;100667.69;;;4.88;76.35
51313;BME280;37397;53.226;10.400;2022-12-07T02:13:11;100656.81;;;4.87;76.39
51313;BME280;37397;53.226;10.400;2022-12-07T02:21:17;100670.41;;;4.92;76.27
51313;BME280;37397;53.226;10.400;2022-12-07T02:24:20;100641.44;;;4.88;76.53
51313;BME280;37397;53.226;10.400;2022-12-07T02:29:47;100653.44;;;4.92;76.58
51313;BME280;37397;53.226;10.400;2022-12-07T02:32:24;100643.72;;;4.93;76.44
51313;BME280;37397;53.226;10.400;2022-12-07T02:35:11;100640.91;;;4.93;76.68
51313;BME280;37397;53.226;10.400;2022-12-07T02:40:19;100636.38;;;4.96;76.61
51313;BME280;37397;53.226;10.400;2022-12-07T02:42:58;100644.41;;;4.97;76.27
51313;BME280;37397;53.226;10.400;2022-12-07T02:45:29;100635.59;;;4.95;76.72
51313;BME280;37397;53.226;10.400;2022-12-07T02:47:58;100640.34;;;4.98;76.76
51313;BME280;37397;53.226;10.400;2022-12-07T02:50:26;100627.00;;;4.99;76.71
51313;BME280;37397;53.226;10.400;2022-12-07T02:52:53;100638.31;;;4.99;76.52
51313;BME280;37397;53.226;10.400;2022-12-07T02:55:23;100635.03;;;5.00;76.82
51313;BME280;37397;53.226;10.400;2022-12-07T02:58:06;100640.25;;;5.02;76.57
51313;BME280;37397;53.226;10.400;2022-12-07T03:00:48;100641.94;;;4.99;76.70
51313;BME280;37397;53.226;10.400;2022-12-07T03:03:18;100641.84;;;5.03;76.48
51313;BME280;37397;53.226;10.400;2022-12-07T03:06:10;100634.59;;;5.02;76.70
51313;BME280;37397;53.226;10.400;2022-12-07T03:09:01;100632.09;;;5.04;76.68
51313;BME280;37397;53.226;10.400;2022-12-07T03:11:47;100630.53;;;5.03;76.65
51313;BME280;37397;53.226;10.400;2022-12-07T03:14:22;100635.47;;;4.99;76.57
51313;BME280;37397;53.226;10.400;2022-12-07T03:17:05;100633.00;;;5.01;76.31
51313;BME280;37397;53.226;10.400;2022-12-07T03:19:35;100633.34;;;5.03;76.74
51313;BME280;37397;53.226;10.400;2022-12-07T03:22:06;100630.97;;;5.01;76.51
51313;BME280;37397;53.226;10.400;2022-12-07T03:24:37;100635.38;;;5.02;76.65
51313;BME280;37397;53.226;10.400;2022-12-07T03:27:13;100638.66;;;5.01;76.40
51313;BME280;37397;53.226;10.400;2022-12-07T03:29:47;100633.91;;;4.98;76.64
51313;BME280;37397;53.226;10.400;2022-12-07T03:35:05;100634.25;;;5.00;76.32
51313;BME280;37397;53.226;10.400;2022-12-07T03:37:42;100633.47;;;4.99;76.42
51313;BME280;37397;53.226;10.400;2022-12-07T03:40:25;100634.25;;;5.00;76.30
51313;BME280;37397;53.226;10.400;2022-12-07T03:42:55;100635.47;;;4.99;76.71
51313;BME280;37397;53.226;10.400;2022-12-07T03:45:31;100641.94;;;4.99;76.50
51313;BME280;37397;53.226;10.400;2022-12-07T03:50:32;100635.47;;;4.99;76.63
51313;BME280;37397;53.226;10.400;2022-12-07T03:53:09;100634.69;;;4.98;76.62
51313;BME280;37397;53.226;10.400;2022-12-07T03:55:39;100632.31;;;4.97;76.62
51313;BME280;37397;53.226;10.400;2022-12-07T03:58:12;100633.91;;;4.98;76.23
51313;BME280;37397;53.226;10.400;2022-12-07T04:00:42;100636.38;;;4.96;76.40
51313;BME280;37397;53.226;10.400;2022-12-07T04:03:09;100634.34;;;4.96;76.62
51313;BME280;37397;53.226;10.400;2022-12-07T04:05:37;100637.19;;;4.96;76.60
51313;BME280;37397;53.226;10.400;2022-12-07T04:08:04;100643.63;;;4.97;76.41
51313;BME280;37397;53.226;10.400;2022-12-07T04:10:31;100638.41;;;4.95;76.45
51313;BME280;37397;53.226;10.400;2022-12-07T04:12:57;100646.88;;;4.95;76.14
51313;BME280;37397;53.226;10.400;2022-12-07T04:15:24;100642.84;;;4.96;76.18
51313;BME280;37397;53.226;10.400;2022-12-07T04:17:51;100645.28;;;4.94;76.39
51313;BME280;37397;53.226;10.400;2022-12-07T04:20:17;100658.19;;;4.95;76.45
51313;BME280;37397;53.226;10.400;2022-12-07T04:22:44;100653.34;;;4.96;76.38
51313;BME280;37397;53.226;10.400;2022-12-07T04:25:10;100650.94;;;4.94;76.37
51313;BME280;37397;53.226;10.400;2022-12-07T04:27:37;100647.78;;;4.92;76.23
51313;BME280;37397;53.226;10.400;2022-12-07T04:30:04;100654.22;;;4.92;76.25
51313;BME280;37397;53.226;10.400;2022-12-07T04:32:31;100657.88;;;4.93;76.46
51313;BME280;37397;53.226;10.400;2022-12-07T04:34:57;100657.50;;;4.91;76.19
51313;BME280;37397;53.226;10.400;2022-12-07T04:37:24;100649.81;;;4.91;76.43
51313;BME280;37397;53.226;10.400;2022-12-07T04:39:50;100653.44;;;4.92;76.17
51313;BME280;37397;53.226;10.400;2022-12-07T04:42:17;100648.66;;;4.89;76.42
51313;BME280;37397;53.226;10.400;2022-12-07T04:44:43;100650.28;;;4.90;76.04
51313;BME280;37397;53.226;10.400;2022-12-07T04:47:10;100661.59;;;4.90;75.95
51313;BME280;37397;53.226;10.400;2022-12-07T04:49:37;100654.31;;;4.89;76.25
51313;BME280;37397;53.226;10.400;2022-12-07T04:52:03;100649.94;;;4.88;75.83
51313;BME280;37397;53.226;10.400;2022-12-07T04:54:30;100647.09;;;4.88;75.98
51313;BME280;37397;53.226;10.400;2022-12-07T04:56:56;100647.09;;;4.88;76.03
51313;BME280;37397;53.226;10.400;2022-12-07T04:59:23;100652.84;;;4.84;76.11
51313;BME280;37397;53.226;10.400;2022-12-07T05:01:49;100652.06;;;4.84;75.84
51313;BME280;37397;53.226;10.400;2022-12-07T05:04:16;100654.53;;;4.82;75.84
51313;BME280;37397;53.226;10.400;2022-12-07T05:06:44;100650.44;;;4.83;75.67
51313;BME280;37397;53.226;10.400;2022-12-07T05:09:11;100658.16;;;4.82;76.13
51313;BME280;37397;53.226;10.400;2022-12-07T05:11:38;100647.28;;;4.81;75.84
51313;BME280;37397;53.226;10.400;2022-12-07T05:14:15;100655.44;;;4.79;75.89
51313;BME280;37397;53.226;10.400;2022-12-07T05:16:45;100661.09;;;4.79;75.63
51313;BME280;37397;53.226;10.400;2022-12-07T05:19:12;100656.75;;;4.74;75.60
51313;BME280;37397;53.226;10.400;2022-12-07T05:21:39;100652.69;;;4.75;75.78
51313;BME280;37397;53.226;10.400;2022-12-07T05:24:07;100651.88;;;4.74;75.47
51313;BME280;37397;53.226;10.400;2022-12-07T05:26:35;100648.38;;;4.70;75.91
51313;BME280;37397;53.226;10.400;2022-12-07T05:29:03;100652.44;;;4.69;75.70
51313;BME280;37397;53.226;10.400;2022-12-07T05:31:30;100655.25;;;4.69;75.49
51313;BME280;37397;53.226;10.400;2022-12-07T05:33:56;100657.75;;;4.67;75.70
51313;BME280;37397;53.226;10.400;2022-12-07T05:36:23;100646.88;;;4.66;75.66
51313;BME280;37397;53.226;10.400;2022-12-07T05:38:49;100659.75;;;4.67;75.67
51313;BME280;37397;53.226;10.400;2022-12-07T05:41:18;100657.38;;;4.65;75.73
51313;BME280;37397;53.226;10.400;2022-12-07T05:44:20;100659.06;;;4.63;75.60
51313;BME280;37397;53.226;10.400;2022-12-07T05:46:46;100656.25;;;4.63;75.66
51313;BME280;37397;53.226;10.400;2022-12-07T05:49:13;100659.97;;;4.60;75.41
51313;BME280;37397;53.226;10.400;2022-12-07T05:51:39;100656.34;;;4.59;75.57
51313;BME280;37397;53.226;10.400;2022-12-07T05:54:05;100655.97;;;4.57;75.49
51313;BME280;37397;53.226;10.400;2022-12-07T05:56:32;100651.94;;;4.58;75.65
51313;BME280;37397;53.226;10.400;2022-12-07T05:58:58;100647.94;;;4.55;75.66
51313;BME280;37397;53.226;10.400;2022-12-07T06:01:43;100652.81;;;4.55;75.74
51313;BME280;37397;53.226;10.400;2022-12-07T06:04:10;100654.03;;;4.54;75.72
51313;BME280;37397;53.226;10.400;2022-12-07T06:06:36;100652.13;;;4.51;75.46
51313;BME280;37397;53.226;10.400;2022-12-07T06:09:03;100656.09;;;4.53;75.49
51313;BME280;37397;53.226;10.400;2022-12-07T06:11:30;100653.34;;;4.50;75.72
51313;BME280;37397;53.226;10.400;2022-12-07T06:14:15;100650.88;;;4.52;75.66
51313;BME280;37397;53.226;10.400;2022-12-07T06:16:41;100653.69;;;4.52;75.38
51313;BME280;37397;53.226;10.400;2022-12-07T06:19:08;100650.53;;;4.50;75.49
51313;BME280;37397;53.226;10.400;2022-12-07T06:21:35;100654.59;;;4.49;75.39
51313;BME280;37397;53.226;10.400;2022-12-07T06:24:01;100648.25;;;4.45;75.64
51313;BME280;37397;53.226;10.400;2022-12-07T06:26:28;100653.00;;;4.48;75.38
51313;BME280;37397;53.226;10.400;2022-12-07T06:28:54;100659.53;;;4.45;75.52
51313;BME280;37397;53.226;10.400;2022-12-07T06:31:21;100657.94;;;4.44;75.61
51313;BME280;37397;53.226;10.400;2022-12-07T06:33:47;100657.94;;;4.44;75.85
51313;BME280;37397;53.226;10.400;2022-12-07T06:36:14;100653.53;;;4.43;75.57
51313;BME280;37397;53.226;10.400;2022-12-07T06:38:40;100653.97;;;4.41;75.25
51313;BME280;37397;53.226;10.400;2022-12-07T06:41:07;100645.59;;;4.37;75.32
51313;BME280;37397;53.226;10.400;2022-12-07T06:43:33;100654.44;;;4.40;75.32
51313;BME280;37397;53.226;10.400;2022-12-07T06:46:00;100657.31;;;4.36;75.60
51313;BME280;37397;53.226;10.400;2022-12-07T06:48:26;100652.50;;;4.36;75.47
51313;BME280;37397;53.226;10.400;2022-12-07T06:50:53;100654.88;;;4.38;75.38
51313;BME280;37397;53.226;10.400;2022-12-07T06:53:21;100650.91;;;4.35;75.56
51313;BME280;37397;53.226;10.400;2022-12-07T06:55:48;100651.69;;;4.36;75.33
51313;BME280;37397;53.226;10.400;2022-12-07T06:58:15;100648.94;;;4.32;75.62
51313;BME280;37397;53.226;10.400;2022-12-07T07:00:42;100647.78;;;4.30;75.51
51313;BME280;37397;53.226;10.400;2022-12-07T07:03:08;100645.34;;;4.32;75.51
51313;BME280;37397;53.226;10.400;2022-12-07T07:05:35;100653.00;;;4.31;75.38
51313;BME280;37397;53.226;10.400;2022-12-07T07:08:02;100653.44;;;4.30;75.57
51313;BME280;37397;53.226;10.400;2022-12-07T07:10:49;100658.41;;;4.26;75.52
51313;BME280;37397;53.226;10.400;2022-12-07T07:13:16;100647.88;;;4.26;75.59
51313;BME280;37397;53.226;10.400;2022-12-07T07:15:42;100651.59;;;4.23;75.53
51313;BME280;37397;53.226;10.400;2022-12-07T07:18:09;100656.03;;;4.24;75.40
51313;BME280;37397;53.226;10.400;2022-12-07T07:20:36;100658.41;;;4.26;75.68
51313;BME280;37397;53.226;10.400;2022-12-07T07:23:03;100660.88;;;4.24;75.44
51313;BME280;37397;53.226;10.400;2022-12-07T07:25:29;100659.72;;;4.21;75.36
51313;BME280;37397;53.226;10.400;2022-12-07T07:27:56;100664.94;;;4.23;75.78
51313;BME280;37397;53.226;10.400;2022-12-07T07:30:23;100664.50;;;4.24;75.61
51313;BME280;37397;53.226;10.400;2022-12-07T07:32:49;100656.13;;;4.20;75.50
51313;BME280;37397;53.226;10.400;2022-12-07T07:35:16;100664.16;;;4.22;75.88
51313;BME280;37397;53.226;10.400;2022-12-07T07:37:43;100660.94;;;4.20;75.69
51313;BME280;37397;53.226;10.400;2022-12-07T07:40:10;100664.22;;;4.18;75.88
51313;BME280;37397;53.226;10.400;2022-12-07T07:42:36;100666.59;;;4.20;75.72
51313;BME280;37397;53.226;10.400;2022-12-07T07:45:03;100660.16;;;4.19;75.98
51313;BME280;37397;53.226;10.400;2022-12-07T07:47:30;100674.63;;;4.22;75.70
51313;BME280;37397;53.226;10.400;2022-12-07T07:49:57;100671.03;;;4.21;75.84
51313;BME280;37397;53.226;10.400;2022-12-07T07:52:24;100670.69;;;4.19;75.93
51313;BME280;37397;53.226;10.400;2022-12-07T07:54:50;100671.03;;;4.21;76.09
51313;BME280;37397;53.226;10.400;2022-12-07T07:57:17;100674.63;;;4.22;76.10
51313;BME280;37397;53.226;10.400;2022-12-07T07:59:43;100667.41;;;4.20;75.79
51313;BME280;37397;53.226;10.400;2022-12-07T08:02:15;100672.25;;;4.20;75.99
51313;BME280;37397;53.226;10.400;2022-12-07T08:04:43;100668.19;;;4.21;76.00
51313;BME280;37397;53.226;10.400;2022-12-07T08:07:10;100673.06;;;4.20;75.91
51313;BME280;37397;53.226;10.400;2022-12-07T08:09:37;100668.19;;;4.21;76.14
51313;BME280;37397;53.226;10.400;2022-12-07T08:12:04;100667.41;;;4.20;76.43
51313;BME280;37397;53.226;10.400;2022-12-07T08:14:31;100669.78;;;4.22;76.26
51313;BME280;37397;53.226;10.400;2022-12-07T08:16:58;100676.22;;;4.23;76.02
51313;BME280;37397;53.226;10.400;2022-12-07T08:19:24;100674.63;;;4.22;75.99
51313;BME280;37397;53.226;10.400;2022-12-07T08:21:51;100677.84;;;4.24;76.09
51313;BME280;37397;53.226;10.400;2022-12-07T08:24:18;100675.78;;;4.24;76.00
51313;BME280;37397;53.226;10.400;2022-12-07T08:26:44;100675.78;;;4.24;76.22
51313;BME280;37397;53.226;10.400;2022-12-07T08:29:11;100672.25;;;4.20;76.16
51313;BME280;37397;53.226;10.400;2022-12-07T08:31:37;100678.63;;;4.24;76.32
51313;BME280;37397;53.226;10.400;2022-12-07T08:34:04;100683.81;;;4.26;76.13
51313;BME280;37397;53.226;10.400;2022-12-07T08:36:30;100688.31;;;4.23;76.06
51313;BME280;37397;53.226;10.400;2022-12-07T08:38:57;100676.66;;;4.21;76.04
51313;BME280;37397;53.226;10.400;2022-12-07T08:41:43;100677.38;;;4.25;76.30
51313;BME280;37397;53.226;10.400;2022-12-07T08:44:09;100677.72;;;4.27;76.28
51313;BME280;37397;53.226;10.400;2022-12-07T08:46:43;100680.22;;;4.25;76.04
51313;BME280;37397;53.226;10.400;2022-12-07T08:49:16;100688.69;;;4.25;76.19
51313;BME280;37397;53.226;10.400;2022-12-07T08:51:44;100682.16;;;4.28;76.09
51313;BME280;37397;53.226;10.400;2022-12-07T08:54:14;100684.16;;;4.28;76.26
51313;BME280;37397;53.226;10.400;2022-12-07T08:56:43;100683.38;;;4.27;76.29
51313;BME280;37397;53.226;10.400;2022-12-07T08:59:13;100689.38;;;4.29;76.30
51313;BME280;37397;53.226;10.400;2022-12-07T09:01:40;100685.00;;;4.28;76.24
51313;BME280;37397;53.226;10.400;2022-12-07T09:04:07;100683.28;;;4.31;76.11
51313;BME280;37397;53.226;10.400;2022-12-07T09:06:34;100690.53;;;4.32;76.33
51313;BME280;37397;53.226;10.400;2022-12-07T09:09:01;100688.94;;;4.31;76.28
51313;BME280;37397;53.226;10.400;2022-12-07T09:11:29;100691.66;;;4.34;76.45
51313;BME280;37397;53.226;10.400;2022-12-07T09:13:55;100685.22;;;4.34;76.31
51313;BME280;37397;53.226;10.400;2022-12-07T09:16:22;100691.22;;;4.36;76.17
51313;BME280;37397;53.226;10.400;2022-12-07T09:18:48;100691.66;;;4.34;76.17
51313;BME280;37397;53.226;10.400;2022-12-07T09:21:15;100688.84;;;4.34;76.55
51313;BME280;37397;53.226;10.400;2022-12-07T09:23:42;100679.16;;;4.35;76.18
51313;BME280;37397;53.226;10.400;2022-12-07T09:26:09;100683.13;;;4.38;76.63
51313;BME280;37397;53.226;10.400;2022-12-07T09:28:37;100687.44;;;4.43;76.41
51313;BME280;37397;53.226;10.400;2022-12-07T09:31:13;100678.25;;;4.38;76.31
51313;BME280;37397;53.226;10.400;2022-12-07T09:33:57;100689.81;;;4.44;76.37
51313;BME280;37397;53.226;10.400;2022-12-07T09:36:25;100696.72;;;4.43;76.22
51313;BME280;37397;53.226;10.400;2022-12-07T09:38:52;100696.63;;;4.47;76.47
51313;BME280;37397;53.226;10.400;2022-12-07T09:41:19;100685.31;;;4.47;76.35
51313;BME280;37397;53.226;10.400;2022-12-07T09:43:47;100688.50;;;4.49;76.29
51313;BME280;37397;53.226;10.400;2022-12-07T09:46:16;100683.66;;;4.49;76.53
51313;BME280;37397;53.226;10.400;2022-12-07T09:48:46;100683.22;;;4.51;76.33
51313;BME280;37397;53.226;10.400;2022-12-07T09:51:16;100681.97;;;4.52;76.31
51313;BME280;37397;53.226;10.400;2022-12-07T09:53:51;100682.78;;;4.52;76.51
51313;BME280;37397;53.226;10.400;2022-12-07T09:56:19;100674.72;;;4.51;76.54
51313;BME280;37397;53.226;10.400;2022-12-07T09:58:46;100680.28;;;4.54;76.44
51313;BME280;37397;53.226;10.400;2022-12-07T10:01:15;100685.50;;;4.56;76.54
51313;BME280;37397;53.226;10.400;2022-12-07T10:03:49;100683.47;;;4.56;76.34
51313;BME280;37397;53.226;10.400;2022-12-07T10:06:16;100687.88;;;4.57;76.47
51313;BME280;37397;53.226;10.400;2022-12-07T10:08:43;100689.88;;;4.57;76.53
51313;BME280;37397;53.226;10.400;2022-12-07T10:11:10;100683.47;;;4.56;76.44
51313;BME280;37397;53.226;10.400;2022-12-07T10:13:39;100687.78;;;4.61;76.61
51313;BME280;37397;53.226;10.400;2022-12-07T10:18:54;100675.25;;;4.62;76.57
51313;BME280;37397;53.226;10.400;2022-12-07T10:21:26;100674.00;;;4.63;76.67
51313;BME280;37397;53.226;10.400;2022-12-07T10:26:30;100669.16;;;4.64;76.28
51313;BME280;37397;53.226;10.400;2022-12-07T10:29:25;100671.16;;;4.63;76.15
51313;BME280;37397;53.226;10.400;2022-12-07T10:31:58;100672.66;;;4.68;76.42
51313;BME280;37397;53.226;10.400;2022-12-07T10:34:28;100672.66;;;4.68;76.56
51313;BME280;37397;53.226;10.400;2022-12-07T10:37:21;100660.56;;;4.67;76.19
51313;BME280;37397;53.226;10.400;2022-12-07T10:39:54;100650.84;;;4.68;76.62
51313;BME280;37397;53.226;10.400;2022-12-07T10:42:29;100651.22;;;4.70;76.78
51313;BME280;37397;53.226;10.400;2022-12-07T10:45:15;100647.13;;;4.71;76.35
51313;BME280;37397;53.226;10.400;2022-12-07T10:47:55;100649.94;;;4.71;76.47
51313;BME280;37397;53.226;10.400;2022-12-07T10:53:19;100656.31;;;4.75;76.39
51313;BME280;37397;53.226;10.400;2022-12-07T11:01:41;100657.00;;;4.80;75.97
51313;BME280;37397;53.226;10.400;2022-12-07T11:04:43;100657.00;;;4.80;76.32
51313;BME280;37397;53.226;10.400;2022-12-07T11:07:49;100651.34;;;4.80;76.12
51313;BME280;37397;53.226;10.400;2022-12-07T11:10:30;100652.06;;;4.84;76.19
51313;BME280;37397;53.226;10.400;2022-12-07T11:15:42;100646.75;;;4.86;76.20
51313;BME280;37397;53.226;10.400;2022-12-07T11:18:26;100644.00;;;4.82;75.93
51313;BME280;37397;53.226;10.400;2022-12-07T11:21:24;100651.72;;;4.82;75.81
51313;BME280;37397;53.226;10.400;2022-12-07T11:24:04;100643.91;;;4.86;76.27
51313;BME280;37397;53.226;10.400;2022-12-07T11:32:44;100647.88;;;4.88;75.80
51313;BME280;37397;53.226;10.400;2022-12-07T11:41:08;100634.88;;;4.91;75.83
51313;BME280;37397;53.226;10.400;2022-12-07T11:43:53;100643.03;;;4.89;76.04
51313;BME280;37397;53.226;10.400;2022-12-07T11:46:24;100645.41;;;4.90;75.85
51313;BME280;37397;53.226;10.400;2022-12-07T11:49:09;100630.03;;;4.91;76.01
51313;BME280;37397;53.226;10.400;2022-12-07T11:51:39;100628.44;;;4.90;76.12
51313;BME280;37397;53.226;10.400;2022-12-07T11:54:21;100639.63;;;4.94;75.65
51313;BME280;37397;53.226;10.400;2022-12-07T11:56:51;100634.69;;;4.98;75.97
51313;BME280;37397;53.226;10.400;2022-12-07T11:59:25;100629.16;;;4.95;76.04
51313;BME280;37397;53.226;10.400;2022-12-07T12:02:02;100634.59;;;5.02;75.88
51313;BME280;37397;53.226;10.400;2022-12-07T12:04:34;100623.28;;;5.02;75.66
51313;BME280;37397;53.226;10.400;2022-12-07T12:07:06;100622.81;;;5.03;76.13
51313;BME280;37397;53.226;10.400;2022-12-07T12:09:57;100613.56;;;5.03;75.94
51313;BME280;37397;53.226;10.400;2022-12-07T12:12:40;100615.22;;;5.00;76.04
51313;BME280;37397;53.226;10.400;2022-12-07T12:18:26;100622.81;;;5.03;75.84
51313;BME280;37397;53.226;10.400;2022-12-07T12:21:01;100617.16;;;5.03;75.93
51313;BME280;37397;53.226;10.400;2022-12-07T12:26:27;100615.81;;;5.08;75.74
51313;BME280;37397;53.226;10.400;2022-12-07T12:29:00;100611.41;;;5.07;76.23
51313;BME280;37397;53.226;10.400;2022-12-07T12:31:31;100618.22;;;5.09;75.81
51313;BME280;37397;53.226;10.400;2022-12-07T12:34:00;100609.72;;;5.09;75.92
51313;BME280;37397;53.226;10.400;2022-12-07T12:36:44;100593.31;;;5.04;75.63
51313;BME280;37397;53.226;10.400;2022-12-07T12:39:15;100608.56;;;5.07;75.89
51313;BME280;37397;53.226;10.400;2022-12-07T12:51:47;100597.19;;;5.10;76.05
51313;BME280;37397;53.226;10.400;2022-12-07T12:57:00;100594.56;;;5.16;75.78
51313;BME280;37397;53.226;10.400;2022-12-07T12:59:38;100608.28;;;5.18;75.96
51313;BME280;37397;53.226;10.400;2022-12-07T13:04:54;100594.13;;;5.18;75.77
51313;BME280;37397;53.226;10.400;2022-12-07T13:23:55;100590.41;;;5.21;75.91
51313;BME280;37397;53.226;10.400;2022-12-07T13:29:16;100593.56;;;5.23;75.73
51313;BME280;37397;53.226;10.400;2022-12-07T13:31:45;100591.88;;;5.25;75.66
51313;BME280;37397;53.226;10.400;2022-12-07T13:34:33;100599.22;;;5.23;75.54
51313;BME280;37397;53.226;10.400;2022-12-07T13:37:01;100595.16;;;5.24;75.71
51313;BME280;37397;53.226;10.400;2022-12-07T13:39:34;100591.09;;;5.25;75.60
51313;BME280;37397;53.226;10.400;2022-12-07T13:42:26;100592.31;;;5.24;75.55
51313;BME280;37397;53.226;10.400;2022-12-07T13:44:53;100600.69;;;5.27;75.59
51313;BME280;37397;53.226;10.400;2022-12-07T13:47:32;100596.75;;;5.25;75.68
51313;BME280;37397;53.226;10.400;2022-12-07T13:50:22;100596.31;;;5.26;75.37
51313;BME280;37397;53.226;10.400;2022-12-07T13:52:49;100600.69;;;5.27;75.42
51313;BME280;37397;53.226;10.400;2022-12-07T13:55:16;100595.81;;;5.28;75.74
51313;BME280;37397;53.226;10.400;2022-12-07T13:57:46;100592.66;;;5.26;75.42
51313;BME280;37397;53.226;10.400;2022-12-07T14:00:16;100605.13;;;5.28;75.66
51313;BME280;37397;53.226;10.400;2022-12-07T14:03:19;100601.59;;;5.24;75.19
51313;BME280;37397;53.226;10.400;2022-12-07T14:06:24;100612.91;;;5.24;75.44
51313;BME280;37397;53.226;10.400;2022-12-07T14:09:06;100611.34;;;5.23;75.26
51313;BME280;37397;53.226;10.400;2022-12-07T14:11:33;100611.34;;;5.23;75.30
51313;BME280;37397;53.226;10.400;2022-12-07T14:14:01;100615.75;;;5.24;75.31
51313;BME280;37397;53.226;10.400;2022-12-07T14:16:33;100617.78;;;5.24;75.16
51313;BME280;37397;53.226;10.400;2022-12-07T14:19:04;100607.72;;;5.23;75.40
51313;BME280;37397;53.226;10.400;2022-12-07T14:21:32;100620.63;;;5.24;75.33
51313;BME280;37397;53.226;10.400;2022-12-07T14:26:41;100604.88;;;5.23;75.41
51313;BME280;37397;53.226;10.400;2022-12-07T14:29:27;100601.72;;;5.21;75.34
51313;BME280;37397;53.226;10.400;2022-12-07T14:32:19;100597.66;;;5.22;75.21
51313;BME280;37397;53.226;10.400;2022-12-07T14:34:54;100595.72;;;5.19;74.92
51313;BME280;37397;53.226;10.400;2022-12-07T14:37:20;100595.72;;;5.19;75.13
51313;BME280;37397;53.226;10.400;2022-12-07T14:39:47;100593.69;;;5.19;75.07
51313;BME280;37397;53.226;10.400;2022-12-07T14:42:13;100599.00;;;5.17;74.99
51313;BME280;37397;53.226;10.400;2022-12-07T14:44:40;100596.94;;;5.18;75.18